sensor_id;sensor_type;location;lat;lon;timestamp;P1;durP1;ratioP1;P2;durP2;ratioP2
58898;SDS011;44680;48.342;7.856;2022-12-20T00:01:16;59.42;;;15.93;;
58898;SDS011;44680;48.342;7.856;2022-12-20T00:03:44;33.28;;;12.60;;
58898;SDS011;44680;48.342;7.856;2022-12-20T00:06:10;27.27;;;12.02;;
58898;SDS011;44680;48.342;7.856;2022-12-20T00:08:36;30.05;;;11.60;;
58898;SDS011;44680;48.342;7.856;2022-12-20T00:11:03;22.85;;;11.88;;
58898;SDS011;44680;48.342;7.856;2022-12-20T00:13:29;21.92;;;10.38;;
58898;SDS011;44680;48.342;7.856;2022-12-20T00:16:09;21.58;;;9.90;;
58898;SDS011;44680;48.342;7.856;2022-12-20T00:18:42;18.25;;;9.65;;
58898;SDS011;44680;48.342;7.856;2022-12-20T00:21:10;17.30;;;9.05;;
58898;SDS011;44680;48.342;7.856;2022-12-20T00:23:36;17.65;;;8.20;;
58898;SDS011;44680;48.342;7.856;2022-12-20T00:28:30;15.50;;;8.05;;
58898;SDS011;44680;48.342;7.856;2022-12-20T00:30:56;14.68;;;8.15;;
58898;SDS011;44680;48.342;7.856;2022-12-20T00:33:22;14.70;;;7.68;;
58898;SDS011;44680;48.342;7.856;2022-12-20T00:35:47;15.07;;;7.70;;
58898;SDS011;44680;48.342;7.856;2022-12-20T00:38:12;10.00;;;6.63;;
58898;SDS011;44680;48.342;7.856;2022-12-20T00:40:38;10.98;;;6.70;;
58898;SDS011;44680;48.342;7.856;2022-12-20T00:43:03;13.43;;;6.50;;
58898;SDS011;44680;48.342;7.856;2022-12-20T00:45:29;13.60;;;6.47;;
58898;SDS011;44680;48.342;7.856;2022-12-20T00:47:54;11.70;;;6.13;;
58898;SDS011;44680;48.342;7.856;2022-12-20T00:50:19;8.35;;;5.75;;
58898;SDS011;44680;48.342;7.856;2022-12-20T00:52:45;10.05;;;6.00;;
58898;SDS011;44680;48.342;7.856;2022-12-20T00:55:10;12.27;;;7.35;;
58898;SDS011;44680;48.342;7.856;2022-12-20T00:57:35;14.20;;;7.97;;
58898;SDS011;44680;48.342;7.856;2022-12-20T01:00:00;13.68;;;7.55;;
58898;SDS011;44680;48.342;7.856;2022-12-20T01:02:26;15.35;;;7.18;;
58898;SDS011;44680;48.342;7.856;2022-12-20T01:04:51;16.92;;;7.90;;
58898;SDS011;44680;48.342;7.856;2022-12-20T01:07:16;12.20;;;6.35;;
58898;SDS011;44680;48.342;7.856;2022-12-20T01:09:43;13.20;;;6.85;;
58898;SDS011;44680;48.342;7.856;2022-12-20T01:12:08;14.48;;;6.97;;
58898;SDS011;44680;48.342;7.856;2022-12-20T01:14:35;13.10;;;7.75;;
58898;SDS011;44680;48.342;7.856;2022-12-20T01:17:00;11.32;;;6.70;;
58898;SDS011;44680;48.342;7.856;2022-12-20T01:19:26;13.63;;;6.55;;
58898;SDS011;44680;48.342;7.856;2022-12-20T01:21:51;9.23;;;6.10;;
58898;SDS011;44680;48.342;7.856;2022-12-20T01:24:17;12.18;;;7.13;;
58898;SDS011;44680;48.342;7.856;2022-12-20T01:26:44;12.02;;;6.18;;
58898;SDS011;44680;48.342;7.856;2022-12-20T01:29:10;10.25;;;5.70;;
58898;SDS011;44680;48.342;7.856;2022-12-20T01:31:35;12.18;;;6.15;;
58898;SDS011;44680;48.342;7.856;2022-12-20T01:34:01;15.40;;;7.55;;
58898;SDS011;44680;48.342;7.856;2022-12-20T01:36:27;19.17;;;8.95;;
58898;SDS011;44680;48.342;7.856;2022-12-20T01:38:58;16.92;;;7.65;;
58898;SDS011;44680;48.342;7.856;2022-12-20T01:41:25;19.15;;;8.75;;
58898;SDS011;44680;48.342;7.856;2022-12-20T01:46:26;24.13;;;10.95;;
58898;SDS011;44680;48.342;7.856;2022-12-20T01:48:54;19.40;;;9.85;;
58898;SDS011;44680;48.342;7.856;2022-12-20T01:51:23;18.30;;;8.35;;
58898;SDS011;44680;48.342;7.856;2022-12-20T01:53:50;16.90;;;8.95;;
58898;SDS011;44680;48.342;7.856;2022-12-20T01:56:20;19.83;;;8.75;;
58898;SDS011;44680;48.342;7.856;2022-12-20T01:58:45;13.48;;;7.13;;
58898;SDS011;44680;48.342;7.856;2022-12-20T02:01:12;14.60;;;7.75;;
58898;SDS011;44680;48.342;7.856;2022-12-20T02:03:38;13.38;;;6.78;;
58898;SDS011;44680;48.342;7.856;2022-12-20T02:06:17;13.20;;;7.55;;
58898;SDS011;44680;48.342;7.856;2022-12-20T02:08:44;18.77;;;8.52;;
58898;SDS011;44680;48.342;7.856;2022-12-20T02:14:17;14.95;;;8.38;;
58898;SDS011;44680;48.342;7.856;2022-12-20T02:16:57;15.23;;;8.23;;
58898;SDS011;44680;48.342;7.856;2022-12-20T02:21:58;17.45;;;8.55;;
58898;SDS011;44680;48.342;7.856;2022-12-20T02:28:02;14.43;;;7.43;;
58898;SDS011;44680;48.342;7.856;2022-12-20T02:30:40;13.45;;;6.78;;
58898;SDS011;44680;48.342;7.856;2022-12-20T02:33:09;12.57;;;6.10;;
58898;SDS011;44680;48.342;7.856;2022-12-20T02:35:36;16.02;;;7.18;;
58898;SDS011;44680;48.342;7.856;2022-12-20T02:38:22;13.40;;;8.02;;
58898;SDS011;44680;48.342;7.856;2022-12-20T02:40:50;19.02;;;9.90;;
58898;SDS011;44680;48.342;7.856;2022-12-20T02:43:18;17.52;;;8.55;;
58898;SDS011;44680;48.342;7.856;2022-12-20T02:48:28;22.85;;;11.77;;
58898;SDS011;44680;48.342;7.856;2022-12-20T02:50:55;18.30;;;8.63;;
58898;SDS011;44680;48.342;7.856;2022-12-20T02:53:21;14.65;;;7.57;;
58898;SDS011;44680;48.342;7.856;2022-12-20T02:55:50;16.65;;;7.97;;
58898;SDS011;44680;48.342;7.856;2022-12-20T03:00:58;19.20;;;8.45;;
58898;SDS011;44680;48.342;7.856;2022-12-20T03:03:28;20.92;;;9.75;;
58898;SDS011;44680;48.342;7.856;2022-12-20T03:05:58;17.17;;;8.45;;
58898;SDS011;44680;48.342;7.856;2022-12-20T03:08:23;19.55;;;10.02;;
58898;SDS011;44680;48.342;7.856;2022-12-20T03:10:49;29.17;;;15.02;;
58898;SDS011;44680;48.342;7.856;2022-12-20T03:13:15;26.35;;;13.90;;
58898;SDS011;44680;48.342;7.856;2022-12-20T03:15:41;26.83;;;14.82;;
58898;SDS011;44680;48.342;7.856;2022-12-20T03:18:06;31.92;;;18.15;;
58898;SDS011;44680;48.342;7.856;2022-12-20T03:20:32;38.28;;;22.95;;
58898;SDS011;44680;48.342;7.856;2022-12-20T03:22:57;37.80;;;19.10;;
58898;SDS011;44680;48.342;7.856;2022-12-20T03:25:23;31.92;;;17.73;;
58898;SDS011;44680;48.342;7.856;2022-12-20T03:27:48;28.15;;;15.30;;
58898;SDS011;44680;48.342;7.856;2022-12-20T03:30:14;27.17;;;14.13;;
58898;SDS011;44680;48.342;7.856;2022-12-20T03:32:39;26.10;;;14.20;;
58898;SDS011;44680;48.342;7.856;2022-12-20T03:35:05;25.70;;;13.50;;
58898;SDS011;44680;48.342;7.856;2022-12-20T03:37:30;23.30;;;12.75;;
58898;SDS011;44680;48.342;7.856;2022-12-20T03:39:55;24.45;;;12.73;;
58898;SDS011;44680;48.342;7.856;2022-12-20T03:42:21;21.85;;;11.98;;
58898;SDS011;44680;48.342;7.856;2022-12-20T03:44:46;23.40;;;11.65;;
58898;SDS011;44680;48.342;7.856;2022-12-20T03:47:11;21.38;;;11.52;;
58898;SDS011;44680;48.342;7.856;2022-12-20T03:49:37;22.70;;;12.15;;
58898;SDS011;44680;48.342;7.856;2022-12-20T03:52:02;21.70;;;11.65;;
58898;SDS011;44680;48.342;7.856;2022-12-20T03:54:27;23.88;;;12.02;;
58898;SDS011;44680;48.342;7.856;2022-12-20T03:56:53;19.40;;;11.10;;
58898;SDS011;44680;48.342;7.856;2022-12-20T03:59:18;22.55;;;12.05;;
58898;SDS011;44680;48.342;7.856;2022-12-20T04:01:43;20.10;;;11.05;;
58898;SDS011;44680;48.342;7.856;2022-12-20T04:04:09;51.10;;;34.88;;
58898;SDS011;44680;48.342;7.856;2022-12-20T04:06:36;29.88;;;15.73;;
58898;SDS011;44680;48.342;7.856;2022-12-20T04:09:01;23.83;;;14.18;;
58898;SDS011;44680;48.342;7.856;2022-12-20T04:11:26;23.95;;;12.32;;
58898;SDS011;44680;48.342;7.856;2022-12-20T04:13:52;22.85;;;11.95;;
58898;SDS011;44680;48.342;7.856;2022-12-20T04:16:19;23.65;;;12.77;;
58898;SDS011;44680;48.342;7.856;2022-12-20T04:18:45;26.67;;;13.02;;
58898;SDS011;44680;48.342;7.856;2022-12-20T04:21:11;24.73;;;12.77;;
58898;SDS011;44680;48.342;7.856;2022-12-20T04:23:37;22.63;;;11.82;;
58898;SDS011;44680;48.342;7.856;2022-12-20T04:26:04;21.60;;;11.50;;
58898;SDS011;44680;48.342;7.856;2022-12-20T04:28:31;21.77;;;11.88;;
58898;SDS011;44680;48.342;7.856;2022-12-20T04:30:57;23.02;;;12.32;;
58898;SDS011;44680;48.342;7.856;2022-12-20T04:33:23;24.30;;;13.38;;
58898;SDS011;44680;48.342;7.856;2022-12-20T04:35:49;26.25;;;13.32;;
58898;SDS011;44680;48.342;7.856;2022-12-20T04:38:14;24.67;;;12.63;;
58898;SDS011;44680;48.342;7.856;2022-12-20T04:40:40;23.23;;;12.15;;
58898;SDS011;44680;48.342;7.856;2022-12-20T04:43:06;22.55;;;12.45;;
58898;SDS011;44680;48.342;7.856;2022-12-20T04:45:32;24.88;;;12.25;;
58898;SDS011;44680;48.342;7.856;2022-12-20T04:47:57;24.85;;;12.35;;
58898;SDS011;44680;48.342;7.856;2022-12-20T04:50:23;23.60;;;12.50;;
58898;SDS011;44680;48.342;7.856;2022-12-20T04:52:48;25.13;;;12.48;;
58898;SDS011;44680;48.342;7.856;2022-12-20T04:55:36;23.77;;;12.18;;
58898;SDS011;44680;48.342;7.856;2022-12-20T04:58:02;29.83;;;12.80;;
58898;SDS011;44680;48.342;7.856;2022-12-20T05:00:27;26.50;;;12.85;;
58898;SDS011;44680;48.342;7.856;2022-12-20T05:02:52;23.90;;;12.35;;
58898;SDS011;44680;48.342;7.856;2022-12-20T05:05:18;25.40;;;12.25;;
58898;SDS011;44680;48.342;7.856;2022-12-20T05:07:43;24.40;;;13.00;;
58898;SDS011;44680;48.342;7.856;2022-12-20T05:10:08;21.20;;;12.20;;
58898;SDS011;44680;48.342;7.856;2022-12-20T05:12:34;21.48;;;11.15;;
58898;SDS011;44680;48.342;7.856;2022-12-20T05:14:59;24.67;;;12.43;;
58898;SDS011;44680;48.342;7.856;2022-12-20T05:17:25;23.20;;;12.38;;
58898;SDS011;44680;48.342;7.856;2022-12-20T05:19:50;25.83;;;12.95;;
58898;SDS011;44680;48.342;7.856;2022-12-20T05:22:15;22.95;;;12.73;;
58898;SDS011;44680;48.342;7.856;2022-12-20T05:24:59;23.42;;;12.95;;
58898;SDS011;44680;48.342;7.856;2022-12-20T05:27:43;23.63;;;12.07;;
58898;SDS011;44680;48.342;7.856;2022-12-20T05:30:08;23.25;;;12.55;;
58898;SDS011;44680;48.342;7.856;2022-12-20T05:32:34;26.30;;;13.13;;
58898;SDS011;44680;48.342;7.856;2022-12-20T05:35:00;23.95;;;12.88;;
58898;SDS011;44680;48.342;7.856;2022-12-20T05:37:25;25.27;;;12.90;;
58898;SDS011;44680;48.342;7.856;2022-12-20T05:39:51;23.98;;;12.45;;
58898;SDS011;44680;48.342;7.856;2022-12-20T05:42:17;23.42;;;14.02;;
58898;SDS011;44680;48.342;7.856;2022-12-20T05:44:42;38.35;;;16.98;;
58898;SDS011;44680;48.342;7.856;2022-12-20T05:47:07;22.20;;;12.05;;
58898;SDS011;44680;48.342;7.856;2022-12-20T05:49:33;23.50;;;12.52;;
58898;SDS011;44680;48.342;7.856;2022-12-20T05:51:58;23.98;;;12.20;;
58898;SDS011;44680;48.342;7.856;2022-12-20T05:54:24;24.60;;;12.40;;
58898;SDS011;44680;48.342;7.856;2022-12-20T05:56:49;23.42;;;11.70;;
58898;SDS011;44680;48.342;7.856;2022-12-20T05:59:15;24.85;;;12.10;;
58898;SDS011;44680;48.342;7.856;2022-12-20T06:01:41;22.17;;;11.90;;
58898;SDS011;44680;48.342;7.856;2022-12-20T06:04:07;23.33;;;12.38;;
58898;SDS011;44680;48.342;7.856;2022-12-20T06:06:32;24.52;;;12.63;;
58898;SDS011;44680;48.342;7.856;2022-12-20T06:08:57;23.70;;;11.68;;
58898;SDS011;44680;48.342;7.856;2022-12-20T06:11:23;24.30;;;12.82;;
58898;SDS011;44680;48.342;7.856;2022-12-20T06:13:48;26.55;;;12.95;;
58898;SDS011;44680;48.342;7.856;2022-12-20T06:16:13;24.23;;;12.13;;
58898;SDS011;44680;48.342;7.856;2022-12-20T06:18:39;27.73;;;13.45;;
58898;SDS011;44680;48.342;7.856;2022-12-20T06:21:04;24.98;;;12.38;;
58898;SDS011;44680;48.342;7.856;2022-12-20T06:23:29;25.88;;;13.05;;
58898;SDS011;44680;48.342;7.856;2022-12-20T06:25:55;29.00;;;13.00;;
58898;SDS011;44680;48.342;7.856;2022-12-20T06:28:21;25.17;;;12.82;;
58898;SDS011;44680;48.342;7.856;2022-12-20T06:30:53;20.70;;;11.68;;
58898;SDS011;44680;48.342;7.856;2022-12-20T06:33:20;25.13;;;12.10;;
58898;SDS011;44680;48.342;7.856;2022-12-20T06:35:45;23.25;;;12.38;;
58898;SDS011;44680;48.342;7.856;2022-12-20T06:38:11;24.92;;;12.98;;
58898;SDS011;44680;48.342;7.856;2022-12-20T06:40:36;26.10;;;13.45;;
58898;SDS011;44680;48.342;7.856;2022-12-20T06:43:02;21.17;;;12.13;;
58898;SDS011;44680;48.342;7.856;2022-12-20T06:45:27;26.70;;;14.30;;
58898;SDS011;44680;48.342;7.856;2022-12-20T06:47:52;25.65;;;13.80;;
58898;SDS011;44680;48.342;7.856;2022-12-20T06:50:18;25.08;;;12.43;;
58898;SDS011;44680;48.342;7.856;2022-12-20T06:52:43;22.75;;;12.05;;
58898;SDS011;44680;48.342;7.856;2022-12-20T06:55:08;21.95;;;12.23;;
58898;SDS011;44680;48.342;7.856;2022-12-20T06:57:34;26.08;;;13.95;;
58898;SDS011;44680;48.342;7.856;2022-12-20T06:59:59;25.98;;;12.48;;
58898;SDS011;44680;48.342;7.856;2022-12-20T07:02:24;27.77;;;15.43;;
58898;SDS011;44680;48.342;7.856;2022-12-20T07:04:50;29.25;;;16.33;;
58898;SDS011;44680;48.342;7.856;2022-12-20T07:07:15;27.75;;;15.50;;
58898;SDS011;44680;48.342;7.856;2022-12-20T07:09:41;31.92;;;15.85;;
58898;SDS011;44680;48.342;7.856;2022-12-20T07:12:07;30.30;;;16.80;;
58898;SDS011;44680;48.342;7.856;2022-12-20T07:14:33;29.95;;;17.63;;
58898;SDS011;44680;48.342;7.856;2022-12-20T07:16:58;32.08;;;16.95;;
58898;SDS011;44680;48.342;7.856;2022-12-20T07:19:23;30.83;;;17.15;;
58898;SDS011;44680;48.342;7.856;2022-12-20T07:21:49;32.45;;;17.35;;
58898;SDS011;44680;48.342;7.856;2022-12-20T07:24:14;29.67;;;16.88;;
58898;SDS011;44680;48.342;7.856;2022-12-20T07:26:39;26.33;;;13.77;;
58898;SDS011;44680;48.342;7.856;2022-12-20T07:29:05;26.77;;;13.30;;
58898;SDS011;44680;48.342;7.856;2022-12-20T07:31:30;24.42;;;13.07;;
58898;SDS011;44680;48.342;7.856;2022-12-20T07:33:55;21.83;;;11.20;;
58898;SDS011;44680;48.342;7.856;2022-12-20T07:36:21;25.58;;;13.07;;
58898;SDS011;44680;48.342;7.856;2022-12-20T07:38:46;22.08;;;11.45;;
58898;SDS011;44680;48.342;7.856;2022-12-20T07:41:14;20.88;;;11.45;;
58898;SDS011;44680;48.342;7.856;2022-12-20T07:43:40;17.20;;;9.70;;
58898;SDS011;44680;48.342;7.856;2022-12-20T07:46:06;12.32;;;7.50;;
58898;SDS011;44680;48.342;7.856;2022-12-20T07:48:32;14.48;;;8.43;;
58898;SDS011;44680;48.342;7.856;2022-12-20T07:50:59;31.35;;;14.40;;
58898;SDS011;44680;48.342;7.856;2022-12-20T07:53:27;42.92;;;22.88;;
58898;SDS011;44680;48.342;7.856;2022-12-20T07:55:53;55.13;;;29.45;;
58898;SDS011;44680;48.342;7.856;2022-12-20T07:58:19;47.80;;;27.02;;
58898;SDS011;44680;48.342;7.856;2022-12-20T08:00:44;50.88;;;26.55;;
58898;SDS011;44680;48.342;7.856;2022-12-20T08:03:17;54.63;;;30.88;;
58898;SDS011;44680;48.342;7.856;2022-12-20T08:05:46;44.95;;;24.77;;
58898;SDS011;44680;48.342;7.856;2022-12-20T08:08:15;46.92;;;27.10;;
58898;SDS011;44680;48.342;7.856;2022-12-20T08:10:41;42.97;;;26.08;;
58898;SDS011;44680;48.342;7.856;2022-12-20T08:13:07;44.97;;;26.13;;
58898;SDS011;44680;48.342;7.856;2022-12-20T08:15:33;47.28;;;28.80;;
58898;SDS011;44680;48.342;7.856;2022-12-20T08:17:59;53.63;;;28.17;;
58898;SDS011;44680;48.342;7.856;2022-12-20T08:20:25;49.65;;;29.33;;
58898;SDS011;44680;48.342;7.856;2022-12-20T08:22:50;55.70;;;28.20;;
58898;SDS011;44680;48.342;7.856;2022-12-20T08:25:15;49.17;;;28.77;;
58898;SDS011;44680;48.342;7.856;2022-12-20T08:27:41;52.50;;;28.75;;
58898;SDS011;44680;48.342;7.856;2022-12-20T08:30:06;44.28;;;25.58;;
58898;SDS011;44680;48.342;7.856;2022-12-20T08:32:34;43.88;;;24.75;;
58898;SDS011;44680;48.342;7.856;2022-12-20T08:35:00;61.35;;;32.75;;
58898;SDS011;44680;48.342;7.856;2022-12-20T08:37:25;58.88;;;32.42;;
58898;SDS011;44680;48.342;7.856;2022-12-20T08:39:50;62.88;;;36.60;;
58898;SDS011;44680;48.342;7.856;2022-12-20T08:42:16;62.00;;;35.08;;
58898;SDS011;44680;48.342;7.856;2022-12-20T08:44:41;39.50;;;22.77;;
58898;SDS011;44680;48.342;7.856;2022-12-20T08:47:07;43.67;;;24.05;;
58898;SDS011;44680;48.342;7.856;2022-12-20T08:49:33;38.60;;;23.17;;
58898;SDS011;44680;48.342;7.856;2022-12-20T08:51:58;42.30;;;24.77;;
58898;SDS011;44680;48.342;7.856;2022-12-20T08:54:23;43.90;;;25.75;;
58898;SDS011;44680;48.342;7.856;2022-12-20T08:56:49;43.40;;;27.08;;
58898;SDS011;44680;48.342;7.856;2022-12-20T08:59:14;46.10;;;25.95;;
58898;SDS011;44680;48.342;7.856;2022-12-20T09:01:39;46.05;;;26.38;;
58898;SDS011;44680;48.342;7.856;2022-12-20T09:04:05;48.65;;;28.38;;
58898;SDS011;44680;48.342;7.856;2022-12-20T09:06:31;52.13;;;30.80;;
58898;SDS011;44680;48.342;7.856;2022-12-20T09:08:58;48.90;;;30.35;;
58898;SDS011;44680;48.342;7.856;2022-12-20T09:11:24;52.80;;;34.28;;
58898;SDS011;44680;48.342;7.856;2022-12-20T09:13:51;54.53;;;35.20;;
58898;SDS011;44680;48.342;7.856;2022-12-20T09:16:19;45.08;;;26.08;;
58898;SDS011;44680;48.342;7.856;2022-12-20T09:18:49;49.10;;;28.45;;
58898;SDS011;44680;48.342;7.856;2022-12-20T09:21:15;50.10;;;29.90;;
58898;SDS011;44680;48.342;7.856;2022-12-20T09:23:40;51.55;;;30.00;;
58898;SDS011;44680;48.342;7.856;2022-12-20T09:26:07;51.78;;;32.33;;
58898;SDS011;44680;48.342;7.856;2022-12-20T09:28:35;58.45;;;33.95;;
58898;SDS011;44680;48.342;7.856;2022-12-20T09:31:01;61.05;;;31.98;;
58898;SDS011;44680;48.342;7.856;2022-12-20T09:33:28;55.78;;;29.08;;
58898;SDS011;44680;48.342;7.856;2022-12-20T09:35:54;42.13;;;25.30;;
58898;SDS011;44680;48.342;7.856;2022-12-20T09:38:20;47.15;;;29.38;;
58898;SDS011;44680;48.342;7.856;2022-12-20T09:40:46;51.35;;;29.40;;
58898;SDS011;44680;48.342;7.856;2022-12-20T09:43:14;40.58;;;24.83;;
58898;SDS011;44680;48.342;7.856;2022-12-20T09:45:40;41.65;;;25.25;;
58898;SDS011;44680;48.342;7.856;2022-12-20T09:48:08;39.42;;;24.58;;
58898;SDS011;44680;48.342;7.856;2022-12-20T09:56:32;54.40;;;28.25;;
58898;SDS011;44680;48.342;7.856;2022-12-20T09:59:05;48.45;;;26.55;;
58898;SDS011;44680;48.342;7.856;2022-12-20T10:01:36;44.17;;;25.08;;
58898;SDS011;44680;48.342;7.856;2022-12-20T10:04:05;38.85;;;22.25;;
58898;SDS011;44680;48.342;7.856;2022-12-20T10:06:57;36.47;;;22.98;;
58898;SDS011;44680;48.342;7.856;2022-12-20T10:09:44;38.72;;;22.08;;
58898;SDS011;44680;48.342;7.856;2022-12-20T10:12:44;68.43;;;29.15;;
58898;SDS011;44680;48.342;7.856;2022-12-20T10:15:19;62.03;;;27.13;;
58898;SDS011;44680;48.342;7.856;2022-12-20T10:23:27;59.47;;;29.10;;
58898;SDS011;44680;48.342;7.856;2022-12-20T10:26:04;55.03;;;26.70;;
58898;SDS011;44680;48.342;7.856;2022-12-20T10:28:33;45.50;;;28.38;;
58898;SDS011;44680;48.342;7.856;2022-12-20T10:31:04;48.50;;;30.90;;
58898;SDS011;44680;48.342;7.856;2022-12-20T10:33:36;42.20;;;25.83;;
58898;SDS011;44680;48.342;7.856;2022-12-20T10:38:52;49.70;;;28.52;;
58898;SDS011;44680;48.342;7.856;2022-12-20T10:41:33;52.50;;;31.45;;
58898;SDS011;44680;48.342;7.856;2022-12-20T10:44:28;53.65;;;30.05;;
58898;SDS011;44680;48.342;7.856;2022-12-20T10:46:54;48.92;;;28.98;;
58898;SDS011;44680;48.342;7.856;2022-12-20T10:54:36;48.75;;;28.98;;
58898;SDS011;44680;48.342;7.856;2022-12-20T10:57:18;50.20;;;29.63;;
58898;SDS011;44680;48.342;7.856;2022-12-20T10:59:50;54.45;;;31.33;;
58898;SDS011;44680;48.342;7.856;2022-12-20T11:02:28;51.53;;;28.63;;
58898;SDS011;44680;48.342;7.856;2022-12-20T11:04:59;59.88;;;32.70;;
58898;SDS011;44680;48.342;7.856;2022-12-20T11:07:29;51.78;;;31.27;;
58898;SDS011;44680;48.342;7.856;2022-12-20T11:09:57;54.60;;;32.25;;
58898;SDS011;44680;48.342;7.856;2022-12-20T11:12:24;52.53;;;32.88;;
58898;SDS011;44680;48.342;7.856;2022-12-20T11:14:49;96.63;;;40.42;;
58898;SDS011;44680;48.342;7.856;2022-12-20T11:17:35;56.88;;;34.67;;
58898;SDS011;44680;48.342;7.856;2022-12-20T11:23:25;69.07;;;36.85;;
58898;SDS011;44680;48.342;7.856;2022-12-20T11:31:57;56.05;;;34.83;;
58898;SDS011;44680;48.342;7.856;2022-12-20T11:51:03;46.47;;;27.33;;
58898;SDS011;44680;48.342;7.856;2022-12-20T11:53:44;55.40;;;26.80;;
58898;SDS011;44680;48.342;7.856;2022-12-20T11:56:35;55.92;;;30.42;;
58898;SDS011;44680;48.342;7.856;2022-12-20T12:01:40;47.10;;;26.48;;
58898;SDS011;44680;48.342;7.856;2022-12-20T12:04:17;38.55;;;23.85;;
58898;SDS011;44680;48.342;7.856;2022-12-20T12:06:47;38.72;;;22.67;;
58898;SDS011;44680;48.342;7.856;2022-12-20T12:11:51;43.95;;;26.85;;
58898;SDS011;44680;48.342;7.856;2022-12-20T12:14:41;41.67;;;26.38;;
58898;SDS011;44680;48.342;7.856;2022-12-20T12:17:22;54.85;;;31.45;;
58898;SDS011;44680;48.342;7.856;2022-12-20T12:22:38;44.85;;;28.02;;
58898;SDS011;44680;48.342;7.856;2022-12-20T12:25:05;47.88;;;28.55;;
58898;SDS011;44680;48.342;7.856;2022-12-20T12:27:34;91.72;;;45.45;;
58898;SDS011;44680;48.342;7.856;2022-12-20T12:29:59;102.13;;;49.95;;
58898;SDS011;44680;48.342;7.856;2022-12-20T12:32:29;67.45;;;37.03;;
58898;SDS011;44680;48.342;7.856;2022-12-20T12:35:04;51.70;;;26.98;;
58898;SDS011;44680;48.342;7.856;2022-12-20T12:45:47;18.33;;;9.02;;
58898;SDS011;44680;48.342;7.856;2022-12-20T12:50:43;17.77;;;9.27;;
58898;SDS011;44680;48.342;7.856;2022-12-20T12:53:12;34.60;;;16.48;;
58898;SDS011;44680;48.342;7.856;2022-12-20T13:00:54;35.90;;;19.77;;
58898;SDS011;44680;48.342;7.856;2022-12-20T13:08:48;38.08;;;18.42;;
58898;SDS011;44680;48.342;7.856;2022-12-20T13:11:27;36.20;;;16.63;;
58898;SDS011;44680;48.342;7.856;2022-12-20T13:16:50;34.30;;;17.08;;
58898;SDS011;44680;48.342;7.856;2022-12-20T13:21:52;31.77;;;17.10;;
58898;SDS011;44680;48.342;7.856;2022-12-20T13:43:46;20.58;;;10.93;;
58898;SDS011;44680;48.342;7.856;2022-12-20T13:46:17;17.65;;;9.05;;
58898;SDS011;44680;48.342;7.856;2022-12-20T13:48:48;23.02;;;11.10;;
58898;SDS011;44680;48.342;7.856;2022-12-20T13:51:17;13.32;;;7.78;;
58898;SDS011;44680;48.342;7.856;2022-12-20T13:53:53;16.65;;;7.38;;
58898;SDS011;44680;48.342;7.856;2022-12-20T13:58:52;11.48;;;5.70;;
58898;SDS011;44680;48.342;7.856;2022-12-20T14:01:19;6.45;;;4.57;;
58898;SDS011;44680;48.342;7.856;2022-12-20T14:03:46;6.88;;;4.65;;
58898;SDS011;44680;48.342;7.856;2022-12-20T14:06:13;9.65;;;5.90;;
58898;SDS011;44680;48.342;7.856;2022-12-20T14:08:42;7.03;;;4.88;;
58898;SDS011;44680;48.342;7.856;2022-12-20T14:11:17;10.48;;;5.45;;
58898;SDS011;44680;48.342;7.856;2022-12-20T14:13:59;9.07;;;5.00;;
58898;SDS011;44680;48.342;7.856;2022-12-20T14:16:27;9.57;;;4.53;;
58898;SDS011;44680;48.342;7.856;2022-12-20T14:21:22;9.65;;;5.10;;
58898;SDS011;44680;48.342;7.856;2022-12-20T14:23:48;6.95;;;4.88;;
58898;SDS011;44680;48.342;7.856;2022-12-20T14:26:28;9.65;;;5.05;;
58898;SDS011;44680;48.342;7.856;2022-12-20T14:28:55;8.05;;;5.25;;
58898;SDS011;44680;48.342;7.856;2022-12-20T14:36:35;8.07;;;5.03;;
58898;SDS011;44680;48.342;7.856;2022-12-20T14:39:09;10.98;;;5.53;;
58898;SDS011;44680;48.342;7.856;2022-12-20T14:41:46;5.88;;;4.13;;
58898;SDS011;44680;48.342;7.856;2022-12-20T14:44:26;9.30;;;5.10;;
58898;SDS011;44680;48.342;7.856;2022-12-20T14:46:53;6.72;;;4.60;;
58898;SDS011;44680;48.342;7.856;2022-12-20T14:49:24;4.88;;;3.60;;
58898;SDS011;44680;48.342;7.856;2022-12-20T14:51:51;6.38;;;4.75;;
58898;SDS011;44680;48.342;7.856;2022-12-20T14:54:21;7.88;;;5.00;;
58898;SDS011;44680;48.342;7.856;2022-12-20T14:56:51;11.55;;;5.50;;
58898;SDS011;44680;48.342;7.856;2022-12-20T14:59:21;11.75;;;5.95;;
58898;SDS011;44680;48.342;7.856;2022-12-20T15:01:49;16.00;;;5.88;;
58898;SDS011;44680;48.342;7.856;2022-12-20T15:04:23;7.10;;;5.43;;
58898;SDS011;44680;48.342;7.856;2022-12-20T15:06:59;8.75;;;5.50;;
58898;SDS011;44680;48.342;7.856;2022-12-20T15:09:25;7.13;;;4.90;;
58898;SDS011;44680;48.342;7.856;2022-12-20T15:11:51;8.93;;;4.70;;
58898;SDS011;44680;48.342;7.856;2022-12-20T15:14:34;6.68;;;4.55;;
58898;SDS011;44680;48.342;7.856;2022-12-20T15:17:10;10.07;;;5.50;;
58898;SDS011;44680;48.342;7.856;2022-12-20T15:19:37;7.53;;;4.80;;
58898;SDS011;44680;48.342;7.856;2022-12-20T15:22:02;11.23;;;5.57;;
58898;SDS011;44680;48.342;7.856;2022-12-20T15:24:28;12.77;;;7.28;;
58898;SDS011;44680;48.342;7.856;2022-12-20T15:26:54;9.68;;;6.25;;
58898;SDS011;44680;48.342;7.856;2022-12-20T15:29:21;11.55;;;7.03;;
58898;SDS011;44680;48.342;7.856;2022-12-20T15:31:50;7.55;;;5.57;;
58898;SDS011;44680;48.342;7.856;2022-12-20T15:34:18;9.07;;;5.60;;
58898;SDS011;44680;48.342;7.856;2022-12-20T15:36:49;9.88;;;5.72;;
58898;SDS011;44680;48.342;7.856;2022-12-20T15:39:14;9.38;;;4.38;;
58898;SDS011;44680;48.342;7.856;2022-12-20T15:41:43;8.85;;;5.35;;
58898;SDS011;44680;48.342;7.856;2022-12-20T15:44:12;9.55;;;5.30;;
58898;SDS011;44680;48.342;7.856;2022-12-20T15:46:39;13.30;;;6.53;;
58898;SDS011;44680;48.342;7.856;2022-12-20T15:49:04;14.60;;;6.20;;
58898;SDS011;44680;48.342;7.856;2022-12-20T15:51:33;9.18;;;4.97;;
58898;SDS011;44680;48.342;7.856;2022-12-20T15:54:01;9.75;;;4.90;;
58898;SDS011;44680;48.342;7.856;2022-12-20T15:56:28;7.40;;;5.20;;
58898;SDS011;44680;48.342;7.856;2022-12-20T15:58:53;6.47;;;4.30;;
58898;SDS011;44680;48.342;7.856;2022-12-20T16:01:20;9.85;;;3.42;;
58898;SDS011;44680;48.342;7.856;2022-12-20T16:03:47;8.32;;;3.88;;
58898;SDS011;44680;48.342;7.856;2022-12-20T16:06:13;4.18;;;3.13;;
58898;SDS011;44680;48.342;7.856;2022-12-20T16:08:38;6.75;;;3.50;;
58898;SDS011;44680;48.342;7.856;2022-12-20T16:11:05;4.22;;;3.08;;
58898;SDS011;44680;48.342;7.856;2022-12-20T16:13:31;8.60;;;3.50;;
58898;SDS011;44680;48.342;7.856;2022-12-20T16:15:56;15.23;;;4.78;;
58898;SDS011;44680;48.342;7.856;2022-12-20T16:18:21;5.38;;;2.75;;
58898;SDS011;44680;48.342;7.856;2022-12-20T16:20:46;7.30;;;3.38;;
58898;SDS011;44680;48.342;7.856;2022-12-20T16:23:16;9.40;;;3.72;;
58898;SDS011;44680;48.342;7.856;2022-12-20T16:25:42;4.85;;;3.10;;
58898;SDS011;44680;48.342;7.856;2022-12-20T16:28:08;7.15;;;3.58;;
58898;SDS011;44680;48.342;7.856;2022-12-20T16:30:34;10.13;;;4.57;;
58898;SDS011;44680;48.342;7.856;2022-12-20T16:32:59;4.78;;;3.20;;
58898;SDS011;44680;48.342;7.856;2022-12-20T16:38:02;12.77;;;3.70;;
58898;SDS011;44680;48.342;7.856;2022-12-20T16:40:29;8.10;;;4.45;;
58898;SDS011;44680;48.342;7.856;2022-12-20T16:42:56;7.35;;;3.90;;
58898;SDS011;44680;48.342;7.856;2022-12-20T16:45:24;14.90;;;5.07;;